Time;durP1;ratioP1;P1;durP2;ratioP2;P2;SDS_P1;SDS_P2;PMS_P1;PMS_P2;Temp;Humidity;BMP_temperature;BMP_pressure;BME280_temperature;BME280_humidity;BME280_pressure;Samples;Min_cycle;Max_cycle;Signal;HPM_P1;HPM_P2
2023/06/15 00:12:52;;;;;;;11.23;7.70;;;;;;;13.21;71.00;100267.84;30501836;28;97335;-66
2023/06/15 00:27:53;;;;;;;11.32;7.60;;;;;;;12.93;71.96;100262.31;30500433;28;110729;-67
2023/06/15 00:42:53;;;;;;;13.73;8.57;;;;;;;12.74;72.93;100250.31;30499195;28;101121;-70
2023/06/15 00:57:54;;;;;;;15.15;9.43;;;;;;;12.80;73.56;100255.78;30497374;28;97859;-69
2023/06/15 01:12:55;;;;;;;12.15;8.98;;;;;;;12.85;74.25;100247.22;30496072;28;96785;-67
2023/06/15 01:28:01;;;;;;;14.45;10.27;;;;;;;13.02;74.49;100242.50;30495488;28;96679;-67
2023/06/15 01:43:02;;;;;;;13.40;9.50;;;;;;;13.23;74.61;100244.44;30493412;28;96652;-69
2023/06/15 01:58:03;;;;;;;12.20;8.87;;;;;;;13.39;74.77;100246.09;30491798;28;96663;-68
2023/06/15 02:13:06;;;;;;;14.23;10.05;;;;;;;13.32;74.93;100237.94;30497314;28;96767;-69
2023/06/15 02:28:06;;;;;;;13.87;9.73;;;;;;;13.33;74.90;100244.97;30511722;28;96813;-68
2023/06/15 02:43:07;;;;;;;13.73;9.30;;;;;;;13.29;75.29;100249.03;30509234;28;96900;-71
2023/06/15 02:58:07;;;;;;;15.25;10.23;;;;;;;13.37;75.49;100248.13;30507510;28;111762;-66
2023/06/15 03:13:08;;;;;;;14.38;9.15;;;;;;;13.56;75.82;100253.91;30506328;28;97613;-66
2023/06/15 03:28:08;;;;;;;15.18;9.52;;;;;;;13.59;75.34;100248.19;30504452;28;106174;-67
2023/06/15 03:43:10;;;;;;;18.92;10.32;;;;;;;13.75;75.62;100245.28;30501511;28;112255;-70
2023/06/15 03:58:11;;;;;;;11.77;10.07;;;;;;;13.96;75.45;100260.53;30500806;28;96809;-69
2023/06/15 04:13:11;;;;;;;11.68;9.30;;;;;;;14.19;75.17;100264.88;30494497;28;110989;-72
2023/06/15 04:28:11;;;;;;;15.25;9.50;;;;;;;14.30;74.93;100252.81;30492625;28;97251;-73
2023/06/15 04:43:12;;;;;;;15.48;11.02;;;;;;;14.69;75.30;100252.31;30499291;28;96779;-81
2023/06/15 04:58:13;;;;;;;13.65;9.82;;;;;;;15.38;74.96;100255.16;30493649;28;97498;-73
2023/06/15 05:13:13;;;;;;;12.53;9.33;;;;;;;16.24;73.81;100265.31;30492771;28;96686;-64
2023/06/15 05:28:14;;;;;;;13.85;9.38;;;;;;;16.67;72.30;100287.44;30491307;28;96736;-68
2023/06/15 05:43:14;;;;;;;13.25;9.00;;;;;;;17.27;70.72;100290.03;30487667;28;97534;-71
2023/06/15 05:58:15;;;;;;;14.88;8.65;;;;;;;17.92;69.33;100299.94;30488467;28;96667;-72
2023/06/15 06:13:15;;;;;;;15.00;8.52;;;;;;;18.73;67.06;100305.59;30486708;28;97398;-69
2023/06/15 06:28:17;;;;;;;12.43;7.97;;;;;;;19.59;64.99;100306.56;30485128;28;97306;-71
2023/06/15 06:43:17;;;;;;;13.65;8.35;;;;;;;20.89;62.59;100321.53;30485463;28;97552;-67
2023/06/15 06:58:17;;;;;;;10.23;7.33;;;;;;;21.93;59.05;100306.38;30487419;28;96773;-64
2023/06/15 07:13:18;;;;;;;12.63;7.20;;;;;;;22.06;54.90;100297.09;30501533;28;111527;-79
2023/06/15 07:28:19;;;;;;;10.60;6.60;;;;;;;22.10;52.75;100296.38;30515885;28;100494;-75
2023/06/15 07:43:20;;;;;;;12.10;5.93;;;;;;;22.91;50.41;100294.41;30502073;28;97382;-80
2023/06/15 07:58:20;;;;;;;11.27;6.20;;;;;;;21.93;50.36;100290.91;30501007;28;96806;-72
2023/06/15 08:13:21;;;;;;;9.13;5.77;;;;;;;21.21;50.79;100294.88;30496137;28;96837;-74
2023/06/15 08:28:21;;;;;;;14.37;6.97;;;;;;;20.14;53.92;100299.41;30498027;28;96875;-81
2023/06/15 08:43:23;;;;;;;11.43;5.30;;;;;;;21.02;52.54;100299.63;30494702;28;96769;-75
2023/06/15 08:58:23;;;;;;;7.40;4.73;;;;;;;23.58;47.78;100298.00;30491073;28;96905;-65
2023/06/15 09:13:23;;;;;;;;;;;;;;;25.22;41.81;100295.88;30491077;28;106705;-75
2023/06/15 09:28:27;;;;;;;7.70;5.33;;;;;;;24.02;41.46;100299.88;30492474;28;97167;-71
2023/06/15 09:43:33;;;;;;;7.30;4.70;;;;;;;23.71;41.91;100299.53;30491029;28;96715;-73
2023/06/15 09:58:34;;;;;;;6.77;3.93;;;;;;;25.86;39.40;100288.47;30489257;28;97151;-76
2023/06/15 10:13:53;;;;;;;4.95;2.92;;;;;;;28.44;33.79;100279.47;30487859;28;96632;-74
2023/06/15 10:29:02;;;;;;;6.57;3.67;;;;;;;29.82;30.38;100270.75;30485392;28;96853;-76
2023/06/15 10:44:03;;;;;;;4.50;2.80;;;;;;;30.09;29.09;100263.78;30508006;28;97508;-81
2023/06/15 10:59:04;;;;;;;5.60;3.53;;;;;;;29.81;29.29;100252.63;30510391;28;97347;-80
2023/06/15 11:14:06;;;;;;;6.00;3.67;;;;;;;28.90;28.57;100251.63;30503987;28;96801;-75
2023/06/15 11:29:08;;;;;;;7.13;2.93;;;;;;;28.32;29.67;100245.06;30501319;28;97136;-78
2023/06/15 11:44:09;;;;;;;4.10;2.63;;;;;;;27.32;30.18;100247.88;30500813;28;96764;-78
2023/06/15 11:59:10;;;;;;;9.15;3.03;;;;;;;29.29;27.69;100231.41;30500879;28;97616;-71
2023/06/15 12:14:16;;;;;;;5.07;2.88;;;;;;;29.35;28.47;100213.78;30500090;28;96927;-80
2023/06/15 12:29:18;;;;;;;4.80;3.00;;;;;;;28.34;28.69;100193.53;30496706;28;97334;-76
2023/06/15 12:44:19;;;;;;;7.00;3.07;;;;;;;28.06;29.15;100188.88;30494044;28;97062;-68
2023/06/15 12:59:20;;;;;;;5.37;2.90;;;;;;;27.72;29.26;100173.25;30490088;28;96939;-72
2023/06/15 13:14:20;;;;;;;4.78;3.47;;;;;;;26.40;31.14;100155.28;30490611;28;96863;-67
2023/06/15 13:29:20;;;;;;;7.05;3.35;;;;;;;25.96;32.12;100153.97;30492130;28;97061;-74
2023/06/15 13:44:21;;;;;;;5.57;3.00;;;;;;;25.43;33.75;100146.03;30489272;28;107163;-69
2023/06/15 13:59:21;;;;;;;5.22;4.10;;;;;;;24.32;35.21;100153.16;30488074;28;96933;-68
2023/06/15 14:14:22;;;;;;;6.22;3.53;;;;;;;23.41;37.94;100151.31;30495350;28;97348;-70
2023/06/15 14:29:22;;;;;;;7.82;3.60;;;;;;;24.50;38.10;100154.63;30508773;28;97430;-64
2023/06/15 14:44:22;;;;;;;4.72;3.60;;;;;;;24.39;37.26;100146.69;30506097;28;98443;-64
2023/06/15 14:59:23;;;;;;;6.18;2.88;;;;;;;24.10;39.87;100144.31;30504545;28;97369;-67
2023/06/15 15:14:23;;;;;;;6.65;2.55;;;;;;;24.19;38.73;100148.16;30399660;28;97462;-69
2023/06/15 15:29:24;;;;;;;4.65;2.85;;;;;;;23.81;38.69;100131.00;30375994;28;97381;-66
2023/06/15 15:44:25;;;;;;;6.40;3.20;;;;;;;23.26;38.05;100139.19;30372594;28;97547;-71
2023/06/15 15:59:25;;;;;;;3.45;2.40;;;;;;;22.47;39.98;100124.09;30371407;28;96919;-73
2023/06/15 16:14:26;;;;;;;4.57;2.53;;;;;;;22.63;39.53;100112.38;30369864;28;97122;-71
2023/06/15 16:29:26;;;;;;;5.10;3.03;;;;;;;21.93;40.36;100114.63;30365817;28;97041;-65
2023/06/15 16:44:27;;;;;;;5.77;2.87;;;;;;;21.81;40.55;100111.19;30364929;28;96825;-65
2023/06/15 16:59:27;;;;;;;4.27;3.20;;;;;;;21.39;41.29;100122.38;30463201;28;102857;-68
2023/06/15 17:14:28;;;;;;;5.53;3.33;;;;;;;21.43;42.36;100115.41;30479722;28;98874;-67
2023/06/15 17:29:28;;;;;;;6.50;3.60;;;;;;;21.44;43.56;100127.88;30480713;28;98693;-72
2023/06/15 17:44:28;;;;;;;5.03;3.20;;;;;;;20.85;45.20;100126.25;30474787;28;97260;-73
2023/06/15 17:59:29;;;;;;;5.70;3.57;;;;;;;20.45;46.45;100118.91;30488751;28;98141;-68
2023/06/15 18:14:30;;;;;;;4.60;3.10;;;;;;;19.98;47.11;100127.03;30482398;28;97456;-68
2023/06/15 18:29:30;;;;;;;7.13;3.90;;;;;;;19.53;47.86;100131.03;30465010;28;97006;-70
2023/06/15 18:44:30;;;;;;;5.90;3.70;;;;;;;19.47;48.71;100138.16;30483918;28;103310;-69
2023/06/15 18:59:31;;;;;;;7.85;4.57;;;;;;;19.14;49.45;100139.47;30454967;28;96720;-67
2023/06/15 19:14:35;;;;;;;5.18;3.90;;;;;;;19.00;50.54;100159.56;30376597;28;101087;-67
2023/06/15 19:29:36;;;;;;;6.27;3.90;;;;;;;18.75;51.90;100166.69;30375822;28;97526;-68
2023/06/15 19:44:36;;;;;;;6.28;4.57;;;;;;;18.20;52.64;100170.13;30428175;28;97439;-69
2023/06/15 19:59:37;;;;;;;8.00;4.85;;;;;;;17.41;54.79;100165.09;30503066;28;97240;-74
2023/06/15 20:14:38;;;;;;;8.95;5.55;;;;;;;17.20;56.51;100168.09;30500520;28;97780;-72
2023/06/15 20:29:38;;;;;;;8.20;6.43;;;;;;;16.89;56.95;100162.44;30499367;28;96803;-73
2023/06/15 20:44:39;;;;;;;10.73;7.30;;;;;;;16.66;57.84;100164.75;30492725;28;96954;-70
2023/06/15 20:59:39;;;;;;;16.25;9.95;;;;;;;16.17;58.95;100159.66;30497597;28;97402;-67
2023/06/15 21:14:40;;;;;;;14.55;7.38;;;;;;;15.89;59.76;100157.19;30493658;28;97367;-67
2023/06/15 21:29:40;;;;;;;16.08;8.57;;;;;;;15.57;60.53;100144.31;30494266;28;105353;-72
2023/06/15 21:44:48;;;;;;;15.55;7.78;;;;;;;15.95;62.53;100153.69;30492931;28;115492;-71
2023/06/15 21:59:48;;;;;;;9.83;7.40;;;;;;;15.39;61.53;100142.22;30489274;28;97305;-67
2023/06/15 22:14:49;;;;;;;12.38;8.98;;;;;;;14.72;62.41;100146.50;30490843;28;97935;-72
2023/06/15 22:29:51;;;;;;;11.13;7.55;;;;;;;14.38;63.94;100140.09;30496572;28;97471;-67
2023/06/15 22:44:51;;;;;;;15.07;7.63;;;;;;;14.07;64.91;100141.31;30511060;28;97367;-73
2023/06/15 22:59:51;;;;;;;9.98;7.15;;;;;;;13.81;65.94;100139.25;30509863;28;96810;-68
2023/06/15 23:14:57;;;;;;;8.50;6.50;;;;;;;13.58;66.48;100124.22;30508049;28;96835;-69
2023/06/15 23:29:58;;;;;;;8.90;6.40;;;;;;;13.34;67.43;100123.56;30506077;28;96657;-69
2023/06/15 23:45:00;;;;;;;7.73;6.07;;;;;;;13.26;67.86;100121.00;30504850;28;96758;-71
